createdAt,value
2024-04-17T00:00:26.760Z,3.87
2024-04-17T00:01:26.563Z,3.87
2024-04-17T00:02:26.436Z,3.86
2024-04-17T00:03:26.506Z,3.87
2024-04-17T00:04:26.559Z,3.84
2024-04-17T00:05:26.469Z,3.84
2024-04-17T00:06:26.416Z,3.83
2024-04-17T00:07:26.443Z,3.83
2024-04-17T00:08:26.422Z,3.80
2024-04-17T00:09:26.406Z,3.76
2024-04-17T00:10:26.440Z,3.76
2024-04-17T00:11:26.426Z,3.75
2024-04-17T00:12:26.322Z,3.73
2024-04-17T00:13:26.371Z,3.72
2024-04-17T00:14:26.314Z,3.69
2024-04-17T00:15:26.361Z,3.68
2024-04-17T00:16:26.358Z,3.66
2024-04-17T00:17:26.341Z,3.62
2024-04-17T00:18:26.294Z,3.61
2024-04-17T00:19:26.316Z,3.61
2024-04-17T00:20:26.273Z,3.60
2024-04-17T00:21:26.859Z,3.55
2024-04-17T00:22:26.256Z,3.55
2024-04-17T00:23:26.243Z,3.52
2024-04-17T00:24:26.243Z,3.51
2024-04-17T00:25:26.238Z,3.52
2024-04-17T00:26:26.228Z,3.50
2024-04-17T00:27:26.276Z,3.45
2024-04-17T00:28:26.301Z,3.48
2024-04-17T00:29:26.205Z,3.45
2024-04-17T00:30:26.164Z,3.45
2024-04-17T00:31:26.155Z,3.43
2024-04-17T00:32:26.276Z,3.43
2024-04-17T00:33:26.239Z,3.43
2024-04-17T00:34:26.155Z,3.40
2024-04-17T00:35:26.107Z,3.40
2024-04-17T00:36:26.088Z,3.39
2024-04-17T00:37:26.155Z,3.36
2024-04-17T00:38:27.117Z,3.36
2024-04-17T00:39:26.150Z,3.36
2024-04-17T00:40:26.076Z,3.36
2024-04-17T00:41:26.095Z,3.35
2024-04-17T00:42:26.048Z,3.33
2024-04-17T00:43:26.083Z,3.32
2024-04-17T00:44:26.011Z,3.35
2024-04-17T00:45:26.124Z,3.35
2024-04-17T00:46:26.025Z,3.35
2024-04-17T00:47:26.094Z,3.32
2024-04-17T00:48:26.102Z,3.33
2024-04-17T00:49:26.026Z,3.31
2024-04-17T00:50:25.960Z,3.33
2024-04-17T00:51:26.010Z,3.31
2024-04-17T00:52:25.950Z,3.29
2024-04-17T00:53:25.912Z,3.28
2024-04-17T00:54:25.969Z,3.28
2024-04-17T00:55:25.943Z,3.28
2024-04-17T00:56:25.879Z,3.24
2024-04-17T00:57:25.941Z,3.24
2024-04-17T00:58:26.644Z,3.26
2024-04-17T00:59:25.876Z,3.24
2024-04-17T01:00:25.873Z,3.21
2024-04-17T01:01:25.965Z,3.20
2024-04-17T01:02:25.872Z,3.20
2024-04-17T01:03:25.830Z,3.20
2024-04-17T01:04:25.885Z,3.20
2024-04-17T01:05:25.877Z,3.18
2024-04-17T01:06:25.812Z,3.17
2024-04-17T01:07:25.851Z,3.15
2024-04-17T01:08:26.276Z,3.18
2024-04-17T01:09:25.748Z,3.18
2024-04-17T01:10:25.726Z,3.17
2024-04-17T01:11:25.775Z,3.18
2024-04-17T01:12:25.812Z,3.20
2024-04-17T01:13:25.705Z,3.20
2024-04-17T01:14:25.688Z,3.20
2024-04-17T01:15:25.708Z,3.20
2024-04-17T01:16:25.724Z,3.21
2024-04-17T01:17:25.701Z,3.23
2024-04-17T01:18:25.785Z,3.20
2024-04-17T01:19:25.641Z,3.20
2024-04-17T01:20:25.621Z,3.21
2024-04-17T01:21:25.627Z,3.21
2024-04-17T01:22:25.639Z,3.21
2024-04-17T01:23:25.643Z,3.21
2024-04-17T01:24:25.603Z,3.20
2024-04-17T01:25:26.491Z,3.20
2024-04-17T01:26:25.619Z,3.21
2024-04-17T01:27:25.591Z,3.21
2024-04-17T01:28:25.625Z,3.21
2024-04-17T01:29:25.582Z,3.21
2024-04-17T01:30:25.567Z,3.18
2024-04-17T01:31:25.628Z,3.18
2024-04-17T01:32:25.571Z,3.15
2024-04-17T01:33:25.610Z,3.14
2024-04-17T01:34:25.547Z,3.10
2024-04-17T01:35:25.459Z,3.10
2024-04-17T01:36:25.540Z,3.06
2024-04-17T01:37:25.521Z,3.06
2024-04-17T01:38:25.513Z,3.05
2024-04-17T01:39:25.414Z,3.02
2024-04-17T01:40:25.428Z,2.99
2024-04-17T01:41:25.414Z,3.00
2024-04-17T01:42:25.386Z,2.97
2024-04-17T01:43:25.418Z,2.97
2024-04-17T01:44:30.120Z,2.97
2024-04-17T01:45:25.415Z,2.96
2024-04-17T01:46:25.387Z,2.96
2024-04-17T01:47:25.366Z,2.93
2024-04-17T01:48:25.487Z,2.93
2024-04-17T01:49:25.375Z,2.92
2024-04-17T01:50:25.324Z,2.90
2024-04-17T01:51:25.310Z,2.89
2024-04-17T01:52:25.296Z,2.87
2024-04-17T01:53:25.270Z,2.89
2024-04-17T01:54:25.274Z,2.89
2024-04-17T01:55:25.342Z,2.89
2024-04-17T01:56:25.230Z,2.89
2024-04-17T01:57:25.246Z,2.89
2024-04-17T01:58:25.292Z,2.90
2024-04-17T01:59:25.234Z,2.93
2024-04-17T02:00:25.215Z,2.90
2024-04-17T02:01:25.234Z,2.89
2024-04-17T02:02:25.277Z,2.87
2024-04-17T02:03:25.187Z,2.87
2024-04-17T02:04:25.206Z,2.87
2024-04-17T02:05:25.132Z,2.85
2024-04-17T02:06:25.166Z,2.85
2024-04-17T02:07:25.161Z,2.84
2024-04-17T02:08:25.203Z,2.84
2024-04-17T02:09:25.129Z,2.84
2024-04-17T02:10:25.131Z,2.84
2024-04-17T02:11:25.108Z,2.82
2024-04-17T02:12:25.115Z,2.85
2024-04-17T02:13:25.111Z,2.87
2024-04-17T02:14:25.124Z,2.87
2024-04-17T02:15:25.054Z,2.90
2024-04-17T02:16:25.113Z,2.90
2024-04-17T02:17:25.109Z,2.90
2024-04-17T02:18:25.095Z,2.92
2024-04-17T02:19:25.052Z,2.92
2024-04-17T02:20:24.981Z,2.90
2024-04-17T02:21:25.034Z,2.93
2024-04-17T02:22:25.044Z,2.93
2024-04-17T02:23:24.955Z,2.93
2024-04-17T02:24:25.023Z,2.95
2024-04-17T02:25:24.994Z,2.95
2024-04-17T02:26:24.929Z,2.95
2024-04-17T02:27:24.905Z,2.93
2024-04-17T02:28:24.927Z,2.92
2024-04-17T02:29:24.919Z,2.93
2024-04-17T02:30:24.898Z,2.90
2024-04-17T02:31:25.354Z,2.89
2024-04-17T02:32:24.864Z,2.87
2024-04-17T02:33:24.935Z,2.85
2024-04-17T02:34:24.825Z,2.85
2024-04-17T02:35:24.833Z,2.82
2024-04-17T02:36:24.835Z,2.84
2024-04-17T02:37:24.964Z,2.82
2024-04-17T02:38:25.723Z,2.82
2024-04-17T02:39:24.802Z,2.81
2024-04-17T02:40:24.811Z,2.81
2024-04-17T02:41:24.773Z,2.81
2024-04-17T02:42:24.746Z,2.79
2024-04-17T02:43:24.739Z,2.79
2024-04-17T02:44:24.743Z,2.79
2024-04-17T02:45:24.746Z,2.79
2024-04-17T02:46:24.733Z,2.78
2024-04-17T02:47:24.819Z,2.75
2024-04-17T02:48:24.895Z,2.77
2024-04-17T02:49:24.796Z,2.75
2024-04-17T02:50:24.687Z,2.75
2024-04-17T02:51:25.611Z,2.75
2024-04-17T02:52:24.638Z,2.77
2024-04-17T02:53:24.655Z,2.75
2024-04-17T02:54:24.620Z,2.75
2024-04-17T02:55:24.668Z,2.75
2024-04-17T02:56:24.599Z,2.75
2024-04-17T02:57:24.612Z,2.75
2024-04-17T02:58:24.577Z,2.75
2024-04-17T02:59:24.554Z,2.77
2024-04-17T03:00:24.561Z,2.75
2024-04-17T03:01:24.559Z,2.75
2024-04-17T03:02:24.590Z,2.77
2024-04-17T03:03:24.613Z,2.77
2024-04-17T03:04:24.588Z,2.77
2024-04-17T03:05:24.558Z,2.78
2024-04-17T03:06:24.495Z,2.78
2024-04-17T03:07:24.510Z,2.78
2024-04-17T03:08:24.472Z,2.82
2024-04-17T03:09:24.482Z,2.81
2024-04-17T03:10:24.468Z,2.82
2024-04-17T03:11:24.469Z,2.84
2024-04-17T03:12:24.442Z,2.84
2024-04-17T03:13:24.428Z,2.87
2024-04-17T03:14:24.477Z,2.87
2024-04-17T03:15:24.389Z,2.85
2024-04-17T03:16:24.487Z,2.87
2024-04-17T03:17:24.456Z,2.87
2024-04-17T03:18:24.392Z,2.89
2024-04-17T03:19:24.364Z,2.87
2024-04-17T03:20:24.359Z,2.89
2024-04-17T03:21:24.310Z,2.87
2024-04-17T03:22:24.350Z,2.89
2024-04-17T03:23:24.332Z,2.87
2024-04-17T03:24:24.334Z,2.89
2024-04-17T03:25:24.309Z,2.92
2024-04-17T03:26:24.267Z,2.89
2024-04-17T03:27:24.271Z,2.90
2024-04-17T03:28:24.288Z,2.92
2024-04-17T03:29:24.268Z,2.92
2024-04-17T03:30:24.253Z,2.93
2024-04-17T03:31:24.256Z,2.95
2024-04-17T03:32:24.399Z,2.93
2024-04-17T03:33:24.270Z,2.96
2024-04-17T03:34:24.228Z,2.97
2024-04-17T03:35:24.222Z,3.00
2024-04-17T03:36:24.230Z,3.02
2024-04-17T03:37:24.191Z,3.03
2024-04-17T03:38:24.148Z,3.05
2024-04-17T03:39:24.164Z,3.06
2024-04-17T03:40:24.206Z,3.05
2024-04-17T03:41:24.168Z,3.08
2024-04-17T03:42:24.176Z,3.11
2024-04-17T03:43:24.204Z,3.11
2024-04-17T03:44:24.119Z,3.13
2024-04-17T03:45:24.227Z,3.13
2024-04-17T03:46:24.087Z,3.15
2024-04-17T03:47:24.325Z,3.15
2024-04-17T03:48:24.089Z,3.15
2024-04-17T03:49:24.056Z,3.20
2024-04-17T03:50:24.024Z,3.21
2024-04-17T03:51:24.136Z,3.23
2024-04-17T03:52:24.122Z,3.23
2024-04-17T03:53:24.030Z,3.24
2024-04-17T03:54:24.041Z,3.23
2024-04-17T03:55:24.029Z,3.24
2024-04-17T03:56:23.984Z,3.23
2024-04-17T03:57:23.944Z,3.23
2024-04-17T03:58:23.985Z,3.24
2024-04-17T03:59:23.927Z,3.23
2024-04-17T04:00:23.950Z,3.24
2024-04-17T04:01:23.944Z,3.23
2024-04-17T04:02:23.906Z,3.28
2024-04-17T04:03:23.900Z,3.26
2024-04-17T04:04:23.940Z,3.26
2024-04-17T04:05:23.848Z,3.28
2024-04-17T04:06:23.842Z,3.26
2024-04-17T04:07:23.902Z,3.28
2024-04-17T04:08:23.841Z,3.29
2024-04-17T04:09:23.870Z,3.32
2024-04-17T04:10:23.845Z,3.33
2024-04-17T04:11:23.784Z,3.32
2024-04-17T04:12:23.782Z,3.33
2024-04-17T04:13:23.845Z,3.35
2024-04-17T04:14:23.746Z,3.40
2024-04-17T04:15:23.753Z,3.40
2024-04-17T04:16:23.796Z,3.40
2024-04-17T04:17:23.908Z,3.43
2024-04-17T04:18:23.984Z,3.43
2024-04-17T04:19:23.793Z,3.48
2024-04-17T04:20:23.755Z,3.50
2024-04-17T04:21:23.777Z,3.51
2024-04-17T04:22:23.755Z,3.54
2024-04-17T04:23:23.699Z,3.55
2024-04-17T04:24:23.665Z,3.58
2024-04-17T04:25:23.866Z,3.58
2024-04-17T04:26:23.674Z,3.62
2024-04-17T04:27:23.630Z,3.65
2024-04-17T04:28:23.635Z,3.69
2024-04-17T04:29:23.617Z,3.72
2024-04-17T04:30:24.073Z,3.76
2024-04-17T04:31:23.672Z,3.76
2024-04-17T04:32:23.664Z,3.79
2024-04-17T04:33:23.673Z,3.83
2024-04-17T04:34:23.683Z,3.83
2024-04-17T04:35:23.603Z,3.87
2024-04-17T04:36:23.567Z,3.87
2024-04-17T04:37:23.652Z,3.91
2024-04-17T04:38:23.510Z,3.93
2024-04-17T04:39:23.496Z,3.91
2024-04-17T04:40:25.535Z,3.91
2024-04-17T04:41:23.516Z,3.94
2024-04-17T04:42:23.465Z,3.94
2024-04-17T04:43:23.522Z,3.94
2024-04-17T04:44:23.642Z,3.94
2024-04-17T04:45:23.676Z,3.94
2024-04-17T04:46:23.444Z,3.94
2024-04-17T04:47:23.443Z,3.96
2024-04-17T04:48:23.450Z,3.94
2024-04-17T04:49:23.419Z,3.93
2024-04-17T04:50:23.401Z,3.93
2024-04-17T04:51:23.398Z,3.93
2024-04-17T04:52:23.387Z,3.90
2024-04-17T04:53:23.347Z,3.90
2024-04-17T04:54:23.353Z,3.90
2024-04-17T04:55:23.392Z,3.91
2024-04-17T04:56:23.300Z,3.90
2024-04-17T04:57:23.448Z,3.90
2024-04-17T04:58:23.316Z,3.90
2024-04-17T04:59:23.347Z,3.90
2024-04-17T05:00:23.346Z,3.93
2024-04-17T05:01:23.787Z,3.91
2024-04-17T05:02:23.254Z,3.91
2024-04-17T05:03:23.300Z,3.91
2024-04-17T05:04:23.466Z,3.93
2024-04-17T05:05:23.259Z,3.96
2024-04-17T05:06:23.255Z,3.97
2024-04-17T05:07:23.239Z,3.98
2024-04-17T05:08:23.183Z,4.00
2024-04-17T05:09:23.174Z,4.05
2024-04-17T05:10:23.241Z,4.05
2024-04-17T05:11:23.213Z,4.05
2024-04-17T05:12:23.166Z,4.06
2024-04-17T05:13:23.170Z,4.12
2024-04-17T05:14:23.138Z,4.14
2024-04-17T05:15:23.100Z,4.15
2024-04-17T05:16:23.151Z,4.15
2024-04-17T05:17:23.102Z,4.20
2024-04-17T05:18:23.114Z,4.18
2024-04-17T05:19:23.079Z,4.16
2024-04-17T05:20:23.081Z,4.18
2024-04-17T05:21:23.094Z,4.18
2024-04-17T05:22:23.102Z,4.18
2024-04-17T05:23:23.061Z,4.23
2024-04-17T05:24:24.268Z,4.23
2024-04-17T05:25:23.026Z,4.22
2024-04-17T05:26:23.010Z,4.22
2024-04-17T05:27:22.986Z,4.23
2024-04-17T05:28:23.057Z,4.24
2024-04-17T05:29:22.968Z,4.26
2024-04-17T05:30:23.001Z,4.27
2024-04-17T05:31:23.020Z,4.27
2024-04-17T05:32:23.026Z,4.32
2024-04-17T05:33:23.021Z,4.36
2024-04-17T05:34:22.972Z,4.42
2024-04-17T05:35:22.914Z,4.45
2024-04-17T05:36:22.960Z,4.48
2024-04-17T05:37:22.934Z,4.54
2024-04-17T05:38:22.890Z,4.60
2024-04-17T05:39:22.890Z,4.66
2024-04-17T05:40:22.918Z,4.70
2024-04-17T05:41:22.834Z,4.75
2024-04-17T05:42:22.837Z,4.80
2024-04-17T05:43:22.822Z,4.85
2024-04-17T05:44:22.853Z,4.91
2024-04-17T05:45:22.882Z,4.94
2024-04-17T05:46:22.818Z,4.99
2024-04-17T05:47:22.835Z,5.02
2024-04-17T05:48:22.847Z,5.04
2024-04-17T05:49:22.775Z,5.06
2024-04-17T05:50:22.774Z,5.09
2024-04-17T05:51:22.751Z,5.13
2024-04-17T05:52:22.755Z,5.17
2024-04-17T05:53:22.737Z,5.17
2024-04-17T05:54:22.744Z,5.20
2024-04-17T05:55:22.720Z,5.22
2024-04-17T05:56:22.704Z,5.28
2024-04-17T05:57:22.794Z,5.33
2024-04-17T05:58:22.755Z,5.38
2024-04-17T05:59:22.653Z,5.40
2024-04-17T06:00:22.653Z,5.45
2024-04-17T06:01:22.787Z,5.49
2024-04-17T06:02:22.598Z,5.56
2024-04-17T06:03:22.649Z,5.63
2024-04-17T06:04:22.689Z,5.68
2024-04-17T06:05:22.629Z,5.78
2024-04-17T06:06:22.576Z,5.85
2024-04-17T06:07:22.619Z,5.94
2024-04-17T06:08:22.536Z,6.00
2024-04-17T06:09:22.539Z,6.08
2024-04-17T06:10:22.553Z,6.14
2024-04-17T06:11:22.606Z,6.19
2024-04-17T06:12:22.551Z,6.27
2024-04-17T06:13:22.517Z,6.34
2024-04-17T06:14:22.499Z,6.38
2024-04-17T06:15:22.512Z,6.46
2024-04-17T06:16:22.496Z,6.52
2024-04-17T06:17:22.495Z,6.56
2024-04-17T06:18:22.483Z,6.62
2024-04-17T06:19:22.456Z,6.64
2024-04-17T06:20:22.450Z,6.67
2024-04-17T06:21:22.469Z,6.70
2024-04-17T06:22:22.403Z,6.76
2024-04-17T06:23:22.420Z,6.76
2024-04-17T06:24:22.386Z,6.80
2024-04-17T06:25:22.406Z,6.84
2024-04-17T06:26:22.362Z,6.87
2024-04-17T06:27:22.369Z,6.89
2024-04-17T06:28:22.371Z,6.91
2024-04-17T06:29:22.318Z,6.94
2024-04-17T06:30:22.365Z,6.95
2024-04-17T06:31:22.319Z,6.97
2024-04-17T06:32:22.431Z,6.99
2024-04-17T06:33:22.421Z,7.05
2024-04-17T06:34:22.297Z,7.06
2024-04-17T06:35:22.248Z,7.12
2024-04-17T06:36:22.324Z,7.15
2024-04-17T06:37:22.248Z,7.17
2024-04-17T06:38:22.219Z,7.17
2024-04-17T06:39:22.222Z,7.23
2024-04-17T06:40:22.295Z,7.25
2024-04-17T06:41:22.215Z,7.24
2024-04-17T06:42:22.204Z,7.23
2024-04-17T06:43:22.160Z,7.20
2024-04-17T06:44:22.181Z,7.17
2024-04-17T06:45:22.153Z,7.10
2024-04-17T06:46:22.176Z,7.06
2024-04-17T06:47:22.151Z,7.05
2024-04-17T06:48:25.634Z,7.03
2024-04-17T06:49:22.115Z,7.06
2024-04-17T06:50:22.146Z,7.09
2024-04-17T06:51:22.117Z,7.10
2024-04-17T06:52:22.063Z,7.12
2024-04-17T06:53:22.058Z,7.13
2024-04-17T06:54:22.061Z,7.17
2024-04-17T06:55:22.119Z,7.23
2024-04-17T06:56:22.031Z,7.25
2024-04-17T06:57:22.084Z,7.30
2024-04-17T06:58:22.036Z,7.31
2024-04-17T06:59:22.017Z,7.31
2024-04-17T07:00:22.033Z,7.25
2024-04-17T07:01:22.186Z,7.20
2024-04-17T07:02:22.057Z,7.13
2024-04-17T07:03:22.102Z,7.13
2024-04-17T07:04:21.948Z,7.17
2024-04-17T07:05:22.062Z,7.37
2024-04-17T07:06:21.935Z,7.48
2024-04-17T07:07:21.900Z,7.57
2024-04-17T07:08:21.929Z,7.57
2024-04-17T07:09:21.880Z,7.58
2024-04-17T07:10:21.918Z,7.61
2024-04-17T07:11:21.954Z,7.64
2024-04-17T07:12:21.842Z,7.67
2024-04-17T07:13:21.841Z,7.64
2024-04-17T07:14:21.848Z,7.64
2024-04-17T07:15:21.891Z,7.71
2024-04-17T07:16:21.826Z,7.77
2024-04-17T07:17:21.818Z,7.97
2024-04-17T07:18:21.873Z,8.20
2024-04-17T07:19:21.809Z,8.52
2024-04-17T07:20:21.814Z,8.70
2024-04-17T07:21:21.823Z,9.05
2024-04-17T07:22:21.761Z,9.39
2024-04-17T07:23:21.746Z,9.69
2024-04-17T07:24:21.733Z,9.91
2024-04-17T07:25:21.744Z,10.11
2024-04-17T07:26:21.729Z,10.30
2024-04-17T07:27:21.684Z,10.56
2024-04-17T07:28:21.690Z,10.85
2024-04-17T07:29:21.657Z,11.07
2024-04-17T07:30:21.673Z,11.10
2024-04-17T07:31:21.667Z,11.02
2024-04-17T07:32:21.774Z,10.81
2024-04-17T07:33:21.656Z,10.59
2024-04-17T07:34:21.648Z,10.36
2024-04-17T07:35:21.627Z,10.12
2024-04-17T07:36:21.648Z,9.91
2024-04-17T07:37:21.639Z,9.81
2024-04-17T07:38:21.593Z,9.75
2024-04-17T07:39:21.576Z,9.78
2024-04-17T07:40:21.544Z,9.86
2024-04-17T07:41:21.549Z,9.96
2024-04-17T07:42:21.539Z,10.12
2024-04-17T07:43:21.519Z,10.33
2024-04-17T07:44:21.501Z,10.60
2024-04-17T07:45:21.544Z,10.79
2024-04-17T07:46:21.472Z,11.02
2024-04-17T07:47:21.496Z,11.27
2024-04-17T07:48:21.612Z,11.60
2024-04-17T07:49:21.436Z,11.94
2024-04-17T07:50:21.454Z,12.23
2024-04-17T07:51:21.481Z,12.42
2024-04-17T07:52:21.458Z,12.39
2024-04-17T07:53:21.425Z,12.41
2024-04-17T07:54:21.498Z,12.59
2024-04-17T07:55:21.376Z,12.72
2024-04-17T07:56:21.382Z,13.00
2024-04-17T07:57:21.360Z,13.25
2024-04-17T07:58:21.369Z,13.49
2024-04-17T07:59:21.414Z,13.78
2024-04-17T08:00:21.348Z,14.10
2024-04-17T08:01:21.306Z,14.50
2024-04-17T08:02:21.333Z,14.86
2024-04-17T08:03:21.293Z,14.84
2024-04-17T08:04:21.359Z,14.78
2024-04-17T08:05:21.293Z,14.84
2024-04-17T08:06:21.254Z,14.84
2024-04-17T08:07:21.289Z,14.47
2024-04-17T08:08:21.252Z,14.06
2024-04-17T08:09:21.222Z,13.49
2024-04-17T08:10:21.253Z,12.93
2024-04-17T08:11:23.946Z,12.62
2024-04-17T08:12:21.280Z,12.50
2024-04-17T08:13:21.163Z,12.39
2024-04-17T08:14:21.186Z,12.38
2024-04-17T08:15:21.178Z,12.52
2024-04-17T08:16:21.160Z,12.75
2024-04-17T08:17:21.439Z,13.03
2024-04-17T08:18:21.219Z,13.14
2024-04-17T08:19:21.132Z,13.05
2024-04-17T08:20:21.323Z,12.87
2024-04-17T08:21:21.188Z,12.65
2024-04-17T08:22:21.087Z,12.24
2024-04-17T08:23:21.061Z,11.98
2024-04-17T08:24:21.207Z,11.79
2024-04-17T08:25:21.211Z,11.67
2024-04-17T08:26:21.109Z,11.61
2024-04-17T08:27:21.213Z,11.55
2024-04-17T08:28:21.033Z,11.51
2024-04-17T08:29:21.024Z,11.49
2024-04-17T08:30:21.003Z,11.44
2024-04-17T08:31:21.008Z,11.37
2024-04-17T08:32:21.019Z,11.19
2024-04-17T08:33:21.276Z,10.96
2024-04-17T08:34:20.975Z,10.81
2024-04-17T08:35:20.983Z,10.78
2024-04-17T08:36:20.934Z,10.81
2024-04-17T08:37:20.959Z,10.89
2024-04-17T08:38:21.050Z,10.96
2024-04-17T08:39:20.905Z,11.00
2024-04-17T08:40:20.885Z,10.97
2024-04-17T08:41:20.919Z,10.84
2024-04-17T08:42:20.865Z,10.73
2024-04-17T08:43:20.873Z,10.64
2024-04-17T08:44:20.864Z,10.53
2024-04-17T08:45:25.963Z,10.40
2024-04-17T08:46:20.869Z,10.33
2024-04-17T08:47:20.892Z,10.29
2024-04-17T08:48:20.902Z,10.25
2024-04-17T08:49:20.790Z,10.12
2024-04-17T08:50:20.871Z,10.05
2024-04-17T08:51:20.775Z,9.91
2024-04-17T08:52:20.767Z,9.81
2024-04-17T08:53:20.751Z,9.74
2024-04-17T08:54:20.728Z,9.68
2024-04-17T08:55:20.746Z,9.57
2024-04-17T08:56:20.794Z,9.40
2024-04-17T08:57:20.788Z,9.17
2024-04-17T08:58:20.729Z,9.04
2024-04-17T08:59:20.683Z,8.95
2024-04-17T09:00:20.673Z,8.92
2024-04-17T09:01:20.803Z,8.91
2024-04-17T09:02:20.633Z,8.92
2024-04-17T09:03:20.697Z,8.92
2024-04-17T09:04:20.639Z,8.91
2024-04-17T09:05:20.641Z,8.95
2024-04-17T09:06:20.637Z,8.99
2024-04-17T09:07:20.614Z,8.98
2024-04-17T09:08:20.715Z,8.96
2024-04-17T09:09:20.582Z,9.02
2024-04-17T09:10:20.529Z,9.13
2024-04-17T09:11:20.575Z,9.28
2024-04-17T09:12:20.543Z,9.42
2024-04-17T09:13:20.574Z,9.58
2024-04-17T09:14:20.515Z,9.74
2024-04-17T09:15:20.528Z,9.89
2024-04-17T09:16:20.476Z,9.94
2024-04-17T09:17:20.493Z,9.89
2024-04-17T09:18:20.548Z,9.86
2024-04-17T09:19:20.463Z,9.84
2024-04-17T09:20:20.455Z,9.79
2024-04-17T09:21:22.200Z,9.75
2024-04-17T09:22:20.415Z,9.71
2024-04-17T09:23:20.438Z,9.66
2024-04-17T09:24:20.866Z,9.66
2024-04-17T09:25:20.398Z,9.69
2024-04-17T09:26:20.367Z,9.76
2024-04-17T09:27:20.405Z,9.83
2024-04-17T09:28:20.334Z,9.86
2024-04-17T09:29:20.339Z,9.83
2024-04-17T09:30:20.372Z,9.78
2024-04-17T09:31:20.351Z,9.71
2024-04-17T09:32:20.336Z,9.69
2024-04-17T09:33:20.466Z,9.74
2024-04-17T09:34:20.307Z,9.79
2024-04-17T09:35:20.283Z,9.81
2024-04-17T09:36:20.264Z,9.78
2024-04-17T09:37:20.286Z,9.76
2024-04-17T09:38:20.258Z,9.74
2024-04-17T09:39:20.263Z,9.72
2024-04-17T09:40:20.291Z,9.66
2024-04-17T09:41:20.248Z,9.56
2024-04-17T09:42:20.192Z,9.47
2024-04-17T09:43:26.240Z,9.40
2024-04-17T09:44:20.223Z,9.39
2024-04-17T09:45:20.172Z,9.36
2024-04-17T09:46:20.299Z,9.33
2024-04-17T09:47:20.213Z,9.38
2024-04-17T09:48:20.120Z,9.68
2024-04-17T09:49:20.155Z,9.97
2024-04-17T09:50:20.152Z,10.29
2024-04-17T09:51:20.136Z,10.78
2024-04-17T09:52:20.118Z,11.27
2024-04-17T09:53:28.169Z,11.69
2024-04-17T09:54:20.082Z,12.04
2024-04-17T09:55:20.055Z,12.47
2024-04-17T09:56:20.041Z,12.83
2024-04-17T09:57:20.062Z,13.14
2024-04-17T09:58:20.066Z,13.52
2024-04-17T09:59:20.095Z,13.87
2024-04-17T10:00:19.995Z,13.89
2024-04-17T10:01:19.976Z,13.95
2024-04-17T10:02:20.047Z,13.97
2024-04-17T10:03:20.037Z,14.25
2024-04-17T10:04:20.440Z,14.47
2024-04-17T10:05:20.019Z,14.58
2024-04-17T10:06:19.971Z,14.62
2024-04-17T10:07:19.951Z,14.58
2024-04-17T10:08:19.990Z,14.35
2024-04-17T10:09:19.930Z,14.09
2024-04-17T10:10:19.940Z,13.88
2024-04-17T10:11:19.906Z,13.87
2024-04-17T10:12:19.955Z,13.88
2024-04-17T10:13:19.852Z,13.82
2024-04-17T10:14:19.859Z,13.79
2024-04-17T10:15:19.840Z,13.73
2024-04-17T10:16:19.866Z,13.66
2024-04-17T10:17:30.231Z,13.46
2024-04-17T10:18:20.156Z,13.25
2024-04-17T10:19:19.816Z,13.22
2024-04-17T10:20:19.770Z,13.22
2024-04-17T10:21:19.785Z,13.15
2024-04-17T10:22:19.744Z,13.19
2024-04-17T10:23:19.782Z,13.30
2024-04-17T10:24:19.778Z,13.62
2024-04-17T10:25:27.456Z,13.99
2024-04-17T10:26:19.859Z,14.39
2024-04-17T10:27:19.713Z,14.84
2024-04-17T10:28:19.701Z,15.14
2024-04-17T10:29:19.671Z,15.38
2024-04-17T10:30:19.698Z,15.46
2024-04-17T10:31:20.214Z,15.38
2024-04-17T10:32:19.664Z,15.38
2024-04-17T10:33:19.804Z,15.51
2024-04-17T10:34:19.651Z,15.80
2024-04-17T10:35:19.640Z,15.92
2024-04-17T10:36:19.639Z,16.09
2024-04-17T10:37:19.671Z,16.28
2024-04-17T10:38:29.450Z,16.39
2024-04-17T10:39:19.589Z,16.41
2024-04-17T10:40:19.612Z,16.53
2024-04-17T10:41:19.570Z,16.75
2024-04-17T10:42:19.632Z,17.07
2024-04-17T10:43:19.612Z,17.38
2024-04-17T10:44:19.625Z,17.74
2024-04-17T10:45:19.560Z,18.08
2024-04-17T10:46:19.504Z,18.12
2024-04-17T10:47:19.604Z,17.92
2024-04-17T10:48:19.601Z,17.89
2024-04-17T10:49:19.483Z,18.02
2024-04-17T10:50:19.538Z,18.11
2024-04-17T10:51:19.470Z,18.07
2024-04-17T10:52:19.510Z,17.79
2024-04-17T10:53:19.429Z,17.56
2024-04-17T10:54:19.399Z,17.59
2024-04-17T10:55:19.409Z,17.04
2024-04-17T10:56:19.478Z,16.73
2024-04-17T10:57:19.400Z,16.42
2024-04-17T10:58:19.378Z,16.05
2024-04-17T10:59:19.363Z,15.74
2024-04-17T11:00:19.390Z,15.47
2024-04-17T11:01:19.323Z,15.16
2024-04-17T11:02:19.317Z,14.98
2024-04-17T11:03:19.429Z,14.91
2024-04-17T11:04:19.635Z,14.80
2024-04-17T11:05:19.343Z,14.72
2024-04-17T11:06:19.296Z,14.68
2024-04-17T11:07:19.264Z,14.60
2024-04-17T11:08:19.375Z,14.55
2024-04-17T11:09:19.252Z,14.51
2024-04-17T11:10:19.248Z,14.45
2024-04-17T11:11:22.652Z,14.39
2024-04-17T11:12:19.266Z,14.37
2024-04-17T11:13:19.231Z,14.32
2024-04-17T11:14:19.382Z,14.27
2024-04-17T11:15:19.172Z,14.22
2024-04-17T11:16:19.315Z,14.14
2024-04-17T11:17:19.368Z,14.06
2024-04-17T11:18:19.208Z,13.96
2024-04-17T11:19:19.174Z,13.87
2024-04-17T11:20:19.155Z,13.78
2024-04-17T11:21:19.158Z,13.67
2024-04-17T11:22:19.107Z,13.59
2024-04-17T11:23:19.121Z,13.46
2024-04-17T11:24:19.090Z,13.33
2024-04-17T11:25:19.117Z,13.23
2024-04-17T11:26:19.099Z,13.10
2024-04-17T11:27:19.098Z,13.04
2024-04-17T11:28:19.099Z,12.95
2024-04-17T11:29:29.682Z,12.92
2024-04-17T11:30:19.041Z,12.90
2024-04-17T11:31:19.032Z,12.86
2024-04-17T11:32:19.138Z,12.87
2024-04-17T11:33:19.116Z,12.86
2024-04-17T11:34:20.670Z,12.89
2024-04-17T11:35:18.959Z,12.93
2024-04-17T11:36:19.072Z,12.97
2024-04-17T11:37:18.966Z,13.11
2024-04-17T11:38:18.959Z,13.25
2024-04-17T11:39:18.946Z,13.36
2024-04-17T11:40:19.951Z,13.49
2024-04-17T11:41:19.049Z,13.66
2024-04-17T11:42:18.931Z,13.95
2024-04-17T11:43:18.908Z,14.45
2024-04-17T11:44:18.947Z,14.80
2024-04-17T11:45:18.939Z,15.10
2024-04-17T11:46:18.957Z,15.51
2024-04-17T11:47:18.891Z,16.02
2024-04-17T11:48:19.030Z,16.42
2024-04-17T11:49:18.977Z,16.73
2024-04-17T11:50:18.823Z,17.07
2024-04-17T11:51:18.887Z,17.41
2024-04-17T11:52:18.784Z,17.81
2024-04-17T11:53:18.848Z,18.20
2024-04-17T11:54:18.799Z,18.55
2024-04-17T11:55:18.766Z,18.88
2024-04-17T11:56:18.755Z,19.22
2024-04-17T11:57:18.752Z,19.54
2024-04-17T11:58:18.742Z,19.83
2024-04-17T11:59:18.714Z,20.14
2024-04-17T12:00:18.700Z,20.42
2024-04-17T12:01:18.741Z,20.69
2024-04-17T12:02:18.726Z,20.92
2024-04-17T12:03:18.703Z,21.12
2024-04-17T12:04:18.752Z,21.28
2024-04-17T12:05:18.671Z,21.47
2024-04-17T12:06:18.640Z,21.67
2024-04-17T12:07:18.658Z,21.71
2024-04-17T12:08:18.679Z,21.50
2024-04-17T12:09:18.629Z,21.19
2024-04-17T12:10:18.614Z,20.79
2024-04-17T12:11:18.746Z,20.38
2024-04-17T12:12:18.625Z,20.01
2024-04-17T12:13:18.548Z,19.69
2024-04-17T12:14:18.677Z,19.31
2024-04-17T12:15:18.577Z,19.00
2024-04-17T12:16:18.592Z,18.69
2024-04-17T12:17:18.752Z,18.20
2024-04-17T12:18:18.571Z,17.64
2024-04-17T12:19:18.494Z,17.23
2024-04-17T12:20:18.553Z,16.93
2024-04-17T12:21:18.501Z,16.70
2024-04-17T12:22:18.513Z,16.48
2024-04-17T12:23:18.467Z,16.31
2024-04-17T12:24:18.525Z,16.45
2024-04-17T12:25:18.479Z,16.68
2024-04-17T12:26:18.486Z,16.98
2024-04-17T12:27:18.431Z,17.31
2024-04-17T12:28:18.497Z,17.51
2024-04-17T12:29:18.406Z,17.74
2024-04-17T12:30:18.415Z,17.89
2024-04-17T12:31:18.458Z,17.93
2024-04-17T12:32:18.405Z,18.12
2024-04-17T12:33:18.492Z,18.39
2024-04-17T12:34:18.357Z,18.65
2024-04-17T12:35:18.427Z,19.04
2024-04-17T12:36:18.382Z,19.58
2024-04-17T12:37:18.321Z,20.01
2024-04-17T12:38:18.325Z,20.29
2024-04-17T12:39:18.331Z,20.52
2024-04-17T12:40:18.292Z,20.69
2024-04-17T12:41:18.323Z,20.85
2024-04-17T12:42:18.293Z,20.84
2024-04-17T12:43:18.271Z,20.80
2024-04-17T12:44:18.254Z,20.69
2024-04-17T12:45:18.254Z,20.52
2024-04-17T12:46:19.032Z,20.28
2024-04-17T12:47:18.311Z,20.18
2024-04-17T12:48:18.628Z,20.31
2024-04-17T12:49:18.199Z,20.41
2024-04-17T12:50:18.242Z,20.57
2024-04-17T12:51:18.206Z,20.70
2024-04-17T12:52:18.238Z,20.87
2024-04-17T12:53:18.447Z,21.01
2024-04-17T12:54:20.803Z,21.10
2024-04-17T12:55:18.159Z,21.24
2024-04-17T12:56:18.827Z,21.42
2024-04-17T12:57:18.137Z,21.49
2024-04-17T12:58:18.115Z,21.47
2024-04-17T12:59:18.110Z,21.61
2024-04-17T13:00:18.134Z,21.52
2024-04-17T13:01:18.127Z,21.50
2024-04-17T13:02:24.948Z,21.61
2024-04-17T13:03:18.111Z,21.77
2024-04-17T13:04:18.145Z,21.91
2024-04-17T13:05:18.064Z,22.07
2024-04-17T13:06:18.065Z,22.20
2024-04-17T13:07:17.981Z,22.21
2024-04-17T13:08:18.016Z,22.17
2024-04-17T13:09:17.979Z,22.12